createdAt,value
2018-07-13T00:00:31.790Z,3.07
2018-07-13T00:03:34.012Z,3.20
2018-07-13T00:06:36.021Z,3.33
2018-07-13T00:09:38.183Z,3.40
2018-07-13T00:12:41.387Z,3.47
2018-07-13T00:15:55.289Z,3.63
2018-07-13T00:18:57.379Z,3.60
2018-07-13T00:21:59.476Z,3.00
2018-07-13T00:25:01.645Z,3.80
2018-07-13T00:28:03.667Z,3.40
2018-07-13T00:31:05.780Z,3.80
2018-07-13T00:34:07.876Z,3.53
2018-07-13T00:37:11.640Z,3.47
2018-07-13T00:40:13.626Z,3.80
2018-07-13T00:43:15.765Z,4.10
2018-07-13T00:46:18.127Z,3.83
2018-07-13T00:49:20.152Z,4.10
2018-07-13T00:52:22.438Z,4.13
2018-07-13T00:55:25.519Z,3.70
2018-07-13T00:58:27.613Z,3.70
2018-07-13T01:01:29.584Z,3.87
2018-07-13T01:04:31.692Z,3.80
2018-07-13T01:07:33.815Z,3.63
2018-07-13T01:10:36.020Z,3.90
2018-07-13T01:13:40.279Z,3.60
2018-07-13T01:16:42.373Z,3.73
2018-07-13T01:19:44.703Z,3.73
2018-07-13T01:22:46.803Z,3.80
2018-07-13T01:25:48.881Z,3.90
2018-07-13T01:28:51.028Z,4.30
2018-07-13T01:31:53.116Z,4.40
2018-07-13T01:34:55.319Z,3.90
2018-07-13T01:37:57.439Z,4.30
2018-07-13T01:40:59.455Z,3.57
2018-07-13T01:44:01.459Z,4.23
2018-07-13T01:47:03.590Z,3.37
2018-07-13T01:50:06.816Z,3.80
2018-07-13T01:53:08.916Z,3.70
2018-07-13T01:56:11.764Z,3.70
2018-07-13T01:59:13.926Z,4.00
2018-07-13T02:02:15.980Z,4.00
2018-07-13T02:05:18.112Z,4.10
2018-07-13T02:08:20.168Z,4.10
2018-07-13T02:11:22.334Z,3.73
2018-07-13T02:14:24.292Z,3.97
2018-07-13T02:17:26.413Z,4.17
2018-07-13T02:20:28.480Z,3.70
2018-07-13T02:26:39.502Z,4.03
2018-07-13T02:29:42.511Z,4.00
2018-07-13T02:32:44.612Z,4.03
2018-07-13T02:35:46.686Z,3.93
2018-07-13T02:38:48.871Z,4.10
2018-07-13T02:41:51.637Z,3.60
2018-07-13T02:44:53.887Z,3.93
2018-07-13T02:47:57.009Z,4.17
2018-07-13T02:50:59.064Z,3.87
2018-07-13T02:54:01.228Z,3.70
2018-07-13T02:57:04.548Z,4.00
2018-07-13T03:00:06.700Z,4.00
2018-07-13T03:03:08.781Z,4.23
2018-07-13T03:06:11.803Z,3.80
2018-07-13T03:09:14.147Z,4.10
2018-07-13T03:12:16.260Z,4.20
2018-07-13T03:15:18.301Z,3.90
2018-07-13T03:18:20.526Z,4.37
2018-07-13T03:21:22.657Z,3.80
2018-07-13T03:24:24.701Z,4.23
2018-07-13T03:27:26.772Z,3.90
2018-07-13T03:30:29.852Z,4.20
2018-07-13T03:33:31.971Z,3.90
2018-07-13T03:36:36.095Z,4.40
2018-07-13T03:39:38.131Z,4.40
2018-07-13T03:42:41.196Z,4.73
2018-07-13T03:45:43.280Z,4.30
2018-07-13T03:48:45.349Z,4.13
2018-07-13T03:51:47.392Z,4.40
2018-07-13T03:54:49.516Z,4.70
2018-07-13T03:57:51.564Z,4.60
2018-07-13T04:00:53.628Z,4.30
2018-07-13T04:03:56.741Z,4.20
2018-07-13T04:06:58.933Z,3.90
2018-07-13T04:10:00.987Z,4.47
2018-07-13T04:13:03.056Z,4.87
2018-07-13T04:16:05.307Z,5.03
2018-07-13T04:19:07.374Z,4.27
2018-07-13T04:22:09.560Z,4.30
2018-07-13T04:25:12.757Z,4.43
2018-07-13T04:28:15.596Z,4.57
2018-07-13T04:31:17.599Z,4.13
2018-07-13T04:34:19.769Z,3.93
2018-07-13T04:37:21.669Z,4.20
2018-07-13T04:40:23.722Z,4.70
2018-07-13T04:43:26.218Z,4.60
2018-07-13T04:46:28.327Z,4.10
2018-07-13T04:49:30.544Z,4.10
2018-07-13T04:52:32.716Z,5.00
2018-07-13T04:55:34.869Z,4.47
2018-07-13T04:58:38.126Z,4.43
2018-07-13T05:01:40.339Z,4.50
2018-07-13T05:04:43.247Z,4.73
2018-07-13T05:07:45.337Z,4.60
2018-07-13T05:10:47.499Z,4.90
2018-07-13T05:13:49.743Z,5.00
2018-07-13T05:16:51.921Z,4.80
2018-07-13T05:19:54.112Z,5.60
2018-07-13T05:22:56.433Z,5.67
2018-07-13T05:25:58.613Z,5.77
2018-07-13T05:29:00.887Z,5.87
2018-07-13T05:32:02.941Z,5.57
2018-07-13T05:35:05.197Z,5.70
2018-07-13T05:38:07.471Z,5.90
2018-07-13T05:41:10.049Z,5.70
2018-07-13T05:44:12.662Z,5.97
2018-07-13T05:47:14.820Z,5.80
2018-07-13T05:50:17.127Z,5.00
2018-07-13T05:53:19.701Z,4.87
2018-07-13T05:56:21.764Z,5.53
2018-07-13T05:59:27.907Z,5.47
2018-07-13T06:02:30.088Z,6.00
2018-07-13T06:05:32.183Z,5.87
2018-07-13T06:08:34.363Z,6.20
2018-07-13T06:11:36.789Z,6.30
2018-07-13T06:14:38.767Z,6.40
2018-07-13T06:17:42.536Z,6.90
2018-07-13T06:20:44.577Z,6.57
2018-07-13T06:23:46.744Z,6.83
2018-07-13T06:26:48.772Z,6.37
2018-07-13T06:29:51.096Z,6.80
2018-07-13T06:32:53.527Z,7.70
2018-07-13T06:35:55.652Z,7.83
2018-07-13T06:38:57.859Z,7.97
2018-07-13T06:42:00.015Z,8.70
2018-07-13T06:45:02.193Z,6.80
2018-07-13T06:48:04.580Z,6.80
2018-07-13T06:51:07.823Z,6.57
2018-07-13T06:54:10.564Z,5.93
2018-07-13T06:57:22.761Z,6.30
2018-07-13T07:00:58.238Z,5.83
2018-07-13T07:04:32.631Z,6.30
2018-07-13T07:07:34.820Z,5.53
2018-07-13T07:10:36.985Z,5.37
2018-07-13T07:13:40.918Z,5.30
2018-07-13T07:16:43.716Z,5.37
2018-07-13T07:19:45.809Z,5.40
2018-07-13T07:22:47.940Z,5.47
2018-07-13T07:25:49.959Z,5.70
2018-07-13T07:28:52.008Z,5.17
2018-07-13T07:31:54.072Z,5.43
2018-07-13T07:34:56.181Z,6.17
2018-07-13T07:37:58.191Z,5.77
2018-07-13T07:41:00.350Z,6.63
2018-07-13T07:44:02.542Z,5.83
2018-07-13T07:47:04.643Z,6.23
2018-07-13T07:50:06.825Z,6.53
2018-07-13T07:53:08.928Z,6.37
2018-07-13T07:56:11.109Z,5.67
2018-07-13T07:59:13.791Z,7.50
2018-07-13T08:02:15.948Z,6.23
2018-07-13T08:05:18.080Z,6.00
2018-07-13T08:08:20.183Z,6.77
2018-07-13T08:11:22.304Z,6.40
2018-07-13T08:14:24.541Z,6.80
2018-07-13T08:17:26.697Z,6.47
2018-07-13T08:20:30.938Z,6.27
2018-07-13T08:23:33.079Z,6.73
2018-07-13T08:26:35.293Z,6.50
2018-07-13T08:29:39.396Z,6.07
2018-07-13T08:32:41.624Z,5.83
2018-07-13T08:35:43.596Z,6.50
2018-07-13T08:38:46.217Z,5.87
2018-07-13T08:41:48.384Z,5.77
2018-07-13T08:44:50.595Z,6.17
2018-07-13T08:47:52.800Z,5.73
2018-07-13T08:50:55.163Z,5.80
2018-07-13T08:53:57.240Z,6.00
2018-07-13T08:56:59.916Z,5.60
2018-07-13T09:00:02.119Z,6.07
2018-07-13T09:03:04.426Z,6.47
2018-07-13T09:06:06.533Z,5.57
2018-07-13T09:09:12.526Z,5.40
2018-07-13T09:12:14.529Z,5.30
2018-07-13T09:15:16.647Z,4.97
2018-07-13T09:18:18.748Z,5.03
2018-07-13T09:21:20.788Z,5.30
2018-07-13T09:24:22.913Z,4.63
2018-07-13T09:27:24.964Z,3.50
2018-07-13T09:30:27.152Z,4.30
2018-07-13T09:33:29.580Z,4.23
2018-07-13T09:36:31.754Z,4.60
2018-07-13T09:39:33.959Z,4.03
2018-07-13T09:42:36.303Z,4.47
2018-07-13T09:45:38.481Z,4.07
2018-07-13T09:48:40.665Z,4.40
2018-07-13T09:51:42.732Z,4.50
2018-07-13T09:54:44.896Z,4.70
2018-07-13T09:57:46.924Z,4.40
2018-07-13T10:00:54.937Z,4.30
2018-07-13T10:03:56.908Z,3.53
2018-07-13T10:06:59.757Z,3.70
2018-07-13T10:10:01.873Z,2.87
2018-07-13T10:13:04.056Z,3.23
2018-07-13T10:16:06.128Z,3.27
2018-07-13T10:19:08.292Z,3.20
2018-07-13T10:22:13.792Z,3.10
2018-07-13T10:25:16.372Z,2.80
2018-07-13T10:28:18.481Z,2.83
2018-07-13T10:31:20.503Z,3.57
2018-07-13T10:34:24.378Z,3.50
2018-07-13T10:37:28.520Z,3.10
2018-07-13T10:40:30.624Z,3.33
2018-07-13T10:43:32.819Z,3.70
2018-07-13T10:46:34.904Z,3.70
2018-07-13T10:49:36.988Z,3.20
2018-07-13T10:52:39.090Z,5.03
2018-07-13T10:55:41.183Z,3.10
2018-07-13T10:58:44.305Z,3.47
2018-07-13T11:01:46.319Z,3.00
2018-07-13T11:04:48.275Z,3.10
2018-07-13T11:07:50.689Z,3.40
2018-07-13T11:10:52.829Z,3.60
2018-07-13T11:13:54.987Z,3.17
2018-07-13T11:16:57.089Z,2.93
2018-07-13T11:19:59.965Z,3.50
2018-07-13T11:23:02.803Z,3.17
2018-07-13T11:26:04.726Z,3.10
2018-07-13T11:29:06.739Z,3.00
2018-07-13T11:32:09.772Z,3.00
2018-07-13T11:35:13.890Z,2.90
2018-07-13T11:38:15.946Z,3.27
2018-07-13T11:41:18.109Z,3.13
2018-07-13T11:44:20.228Z,3.20
2018-07-13T11:47:22.384Z,3.10
2018-07-13T11:50:25.516Z,3.00
2018-07-13T11:53:27.503Z,3.10
2018-07-13T11:56:29.572Z,2.93
2018-07-13T11:59:31.683Z,2.90
2018-07-13T12:02:35.703Z,2.80
2018-07-13T12:05:37.759Z,2.87
2018-07-13T12:08:39.825Z,2.63
2018-07-13T12:11:42.252Z,2.93
2018-07-13T12:14:44.380Z,2.43
2018-07-13T12:17:46.618Z,3.20
2018-07-13T12:20:48.619Z,2.90
2018-07-13T12:23:52.741Z,3.03
2018-07-13T12:26:54.876Z,3.30
2018-07-13T12:29:56.988Z,2.67
2018-07-13T12:32:58.960Z,2.77
2018-07-13T12:36:01.032Z,2.70
2018-07-13T12:39:03.463Z,2.90
2018-07-13T12:42:05.657Z,2.60
2018-07-13T12:45:07.759Z,2.70
2018-07-13T12:48:10.065Z,2.77
2018-07-13T12:51:12.501Z,2.77
2018-07-13T12:54:15.329Z,2.70
2018-07-13T12:57:17.562Z,3.00
2018-07-13T13:00:19.720Z,2.60
2018-07-13T13:03:21.877Z,2.60
2018-07-13T13:06:25.065Z,2.50
2018-07-13T13:09:27.184Z,2.90
2018-07-13T13:12:29.259Z,2.80
2018-07-13T13:15:31.423Z,3.00
2018-07-13T13:18:33.648Z,3.00
2018-07-13T13:21:35.862Z,2.83
2018-07-13T13:24:37.823Z,2.90
2018-07-13T13:27:41.047Z,3.00
2018-07-13T13:30:43.068Z,2.90
2018-07-13T13:33:46.487Z,3.10
2018-07-13T13:36:48.536Z,3.30
2018-07-13T13:39:50.610Z,3.10
2018-07-13T13:42:52.572Z,3.20
2018-07-13T13:45:54.660Z,3.57
2018-07-13T13:48:56.765Z,3.30
2018-07-13T13:51:58.860Z,3.60
2018-07-13T13:55:00.968Z,3.30
2018-07-13T13:58:02.998Z,2.93
2018-07-13T14:01:05.147Z,3.10
2018-07-13T14:04:07.355Z,3.00
2018-07-13T14:07:09.445Z,2.90
2018-07-13T14:10:11.598Z,3.03
2018-07-13T14:13:13.633Z,3.00
2018-07-13T14:16:15.905Z,2.90
2018-07-13T14:19:17.994Z,3.30
2018-07-13T14:22:20.088Z,3.43
2018-07-13T14:25:22.335Z,2.93
2018-07-13T14:28:24.426Z,3.13
2018-07-13T14:31:27.427Z,3.40
2018-07-13T14:34:29.664Z,3.30
2018-07-13T14:37:32.472Z,3.70
2018-07-13T14:40:34.624Z,3.67
2018-07-13T14:43:36.708Z,3.20
2018-07-13T14:46:38.927Z,4.00
2018-07-13T14:49:42.173Z,3.40
2018-07-13T14:52:44.183Z,3.47
2018-07-13T14:55:47.313Z,3.73
2018-07-13T14:58:49.560Z,3.20
2018-07-13T15:01:52.791Z,3.40
2018-07-13T15:04:54.930Z,3.87
2018-07-13T15:07:57.084Z,3.97
2018-07-13T15:10:59.244Z,3.73
2018-07-13T15:14:01.321Z,3.77
2018-07-13T15:17:03.428Z,3.80
2018-07-13T15:20:05.567Z,3.50
2018-07-13T15:23:07.688Z,3.33
2018-07-13T15:26:09.811Z,3.83
2018-07-13T15:29:12.059Z,3.70
2018-07-13T15:32:14.212Z,3.40
2018-07-13T15:35:17.192Z,3.60
2018-07-13T15:38:20.247Z,3.60
2018-07-13T15:41:22.348Z,3.80
2018-07-13T15:44:24.348Z,3.60
2018-07-13T15:47:26.559Z,3.93
2018-07-13T15:50:29.744Z,3.83
2018-07-13T15:53:31.875Z,3.80
2018-07-13T15:56:33.988Z,3.60
2018-07-13T15:59:37.051Z,3.40
2018-07-13T16:02:39.146Z,3.80
2018-07-13T16:05:41.450Z,3.83
2018-07-13T16:08:43.475Z,3.77
2018-07-13T16:11:45.703Z,3.70
2018-07-13T16:14:47.696Z,3.60
2018-07-13T16:17:49.725Z,4.77
2018-07-13T16:20:51.885Z,3.27
2018-07-13T16:23:54.949Z,3.13
2018-07-13T16:26:57.086Z,3.60
2018-07-13T16:29:59.224Z,3.53
2018-07-13T16:33:01.287Z,3.87
2018-07-13T16:36:03.495Z,3.77
2018-07-13T16:39:06.227Z,3.30
2018-07-13T16:42:08.312Z,3.10
2018-07-13T16:45:10.451Z,3.27
2018-07-13T16:48:12.498Z,2.97
2018-07-13T16:51:14.769Z,2.80
2018-07-13T16:54:17.505Z,3.03
2018-07-13T16:57:19.716Z,3.03
2018-07-13T17:00:21.928Z,2.80
2018-07-13T17:03:24.051Z,2.90
2018-07-13T17:06:26.411Z,3.27
2018-07-13T17:09:28.440Z,2.90
2018-07-13T17:12:31.644Z,2.73
2018-07-13T17:15:33.752Z,2.93
2018-07-13T17:18:35.827Z,3.00
2018-07-13T17:21:37.941Z,2.87
2018-07-13T17:24:40.101Z,3.10
2018-07-13T17:27:42.213Z,2.80
2018-07-13T17:30:44.324Z,2.57
2018-07-13T17:33:47.615Z,2.67
2018-07-13T17:36:49.660Z,2.60
2018-07-13T17:39:51.743Z,2.40
2018-07-13T17:42:53.860Z,3.00
2018-07-13T17:45:55.983Z,2.30
2018-07-13T17:48:58.099Z,2.80
2018-07-13T17:52:00.279Z,3.20
2018-07-13T17:55:02.500Z,3.10
2018-07-13T17:58:04.575Z,3.20
2018-07-13T18:01:07.016Z,2.90
2018-07-13T18:04:09.156Z,3.07
2018-07-13T18:07:11.289Z,3.20
2018-07-13T18:10:13.374Z,2.87
2018-07-13T18:13:15.449Z,2.87
2018-07-13T18:16:18.433Z,2.73
2018-07-13T18:19:21.511Z,2.80
2018-07-13T18:22:23.584Z,2.60
2018-07-13T18:25:25.772Z,2.77
2018-07-13T18:28:27.841Z,3.33
2018-07-13T18:31:29.914Z,2.90
2018-07-13T18:34:32.094Z,2.90
2018-07-13T18:37:34.222Z,3.10
2018-07-13T18:40:36.322Z,2.90
2018-07-13T18:43:38.588Z,3.20
2018-07-13T18:46:40.876Z,3.63
2018-07-13T18:49:44.043Z,3.40
2018-07-13T18:52:46.167Z,2.90
2018-07-13T18:55:48.234Z,2.93
2018-07-13T18:58:50.378Z,2.90
2018-07-13T19:01:52.465Z,2.80
2018-07-13T19:04:54.491Z,3.37
2018-07-13T19:07:56.787Z,3.00
2018-07-13T19:10:58.935Z,2.77
2018-07-13T19:14:01.113Z,3.27
2018-07-13T19:17:03.225Z,3.13
2018-07-13T19:20:05.283Z,3.03
2018-07-13T19:23:07.261Z,3.27
2018-07-13T19:26:09.471Z,3.40
2018-07-13T19:29:11.565Z,3.00
2018-07-13T19:32:14.646Z,3.23
2018-07-13T19:35:16.942Z,3.00
2018-07-13T19:38:19.386Z,3.33
2018-07-13T19:41:21.689Z,3.10
2018-07-13T19:44:23.778Z,3.10
2018-07-13T19:47:26.508Z,3.07
2018-07-13T19:50:28.601Z,3.30
2018-07-13T19:53:30.723Z,3.00
2018-07-13T19:56:32.794Z,3.30
2018-07-13T19:59:34.896Z,3.30
2018-07-13T20:02:36.981Z,3.20
2018-07-13T20:05:39.032Z,3.97
2018-07-13T20:08:41.345Z,3.57
2018-07-13T20:11:43.379Z,3.27
2018-07-13T20:14:45.460Z,3.60
2018-07-13T20:17:47.552Z,3.20
2018-07-13T20:20:49.632Z,3.13
2018-07-13T20:23:51.655Z,3.20
2018-07-13T20:26:53.765Z,3.90
2018-07-13T20:29:56.973Z,4.43
2018-07-13T20:32:58.916Z,4.30
2018-07-13T20:36:01.025Z,4.10
2018-07-13T20:39:04.017Z,3.60
2018-07-13T20:42:05.980Z,3.03
2018-07-13T20:45:08.131Z,3.40
2018-07-13T20:48:10.191Z,3.60
2018-07-13T20:51:12.351Z,3.60
2018-07-13T20:54:14.445Z,3.50
2018-07-13T20:57:16.605Z,3.77
2018-07-13T21:00:18.652Z,3.97
2018-07-13T21:03:20.764Z,4.00
2018-07-13T21:06:22.832Z,3.90
2018-07-13T21:09:25.180Z,3.60
2018-07-13T21:12:27.446Z,3.80
2018-07-13T21:15:29.412Z,3.70
2018-07-13T21:18:32.526Z,4.20
2018-07-13T21:21:34.564Z,3.60
2018-07-13T21:24:36.627Z,3.43
2018-07-13T21:27:38.711Z,3.93
2018-07-13T21:30:40.704Z,4.03
2018-07-13T21:33:42.763Z,4.20
2018-07-13T21:36:44.798Z,4.03
2018-07-13T21:39:46.928Z,3.67
2018-07-13T21:42:49.056Z,3.50
2018-07-13T21:45:51.147Z,3.60
2018-07-13T21:48:53.325Z,4.13
2018-07-13T21:51:55.435Z,4.27
2018-07-13T21:54:57.589Z,4.30
2018-07-13T21:58:00.944Z,4.47
2018-07-13T22:01:03.009Z,3.97
2018-07-13T22:04:05.221Z,4.00
2018-07-13T22:07:07.243Z,3.97
2018-07-13T22:10:09.468Z,3.80
2018-07-13T22:13:11.614Z,3.37
2018-07-13T22:16:13.671Z,3.47
2018-07-13T22:19:15.758Z,3.37
2018-07-13T22:22:17.891Z,3.53
2018-07-13T22:25:19.992Z,3.80
2018-07-13T22:28:22.065Z,3.27
2018-07-13T22:31:24.184Z,3.93
2018-07-13T22:34:26.307Z,3.90
2018-07-13T22:37:28.368Z,3.90
2018-07-13T22:40:31.606Z,3.40
2018-07-13T22:43:33.604Z,4.07
2018-07-13T22:46:35.709Z,3.80
2018-07-13T22:49:37.724Z,4.17
2018-07-13T22:52:39.852Z,4.13
2018-07-13T22:55:41.914Z,4.33
2018-07-13T22:58:43.973Z,4.07
2018-07-13T23:01:45.993Z,3.97
2018-07-13T23:04:48.115Z,4.10
2018-07-13T23:07:50.184Z,4.17
2018-07-13T23:10:52.262Z,3.57
2018-07-13T23:13:54.330Z,3.77
2018-07-13T23:16:56.355Z,3.70
2018-07-13T23:19:59.382Z,4.00
2018-07-13T23:23:02.608Z,4.07
2018-07-13T23:26:04.649Z,4.13
2018-07-13T23:29:06.735Z,4.37
2018-07-13T23:32:08.884Z,4.03
2018-07-13T23:35:10.981Z,4.20
2018-07-13T23:38:13.048Z,4.50
2018-07-13T23:41:15.008Z,4.20
2018-07-13T23:44:17.063Z,4.37
2018-07-13T23:47:19.330Z,4.00
2018-07-13T23:50:21.433Z,4.17
2018-07-13T23:53:23.530Z,4.43
2018-07-13T23:56:27.607Z,3.90
2018-07-13T23:59:29.701Z,3.97
